Port Dufferin, Canada
Current Conditions -  °F | °C
As of 5:00 AM on Thursday 27 Nov 2014 (Local Time) from CYHZ Reporting Station
Light Rain Light Rain  
Wind Chill: -2°   Ceiling: 500
Heat Index:   Visibility: 3mi
Dew Point:   Wind: 16mph
Humidity: 93%   Direction: 30°NNE
Pressure: 29.5"   Gusts: 24mph
Location:  44.92°N, 62.38°W
Report Text: CYHZ 270900Z 03014G21KT 3SM -RA BR BKN005 OVC015 03/02 A2950 RMK SF7NS1 SLP993
Loading
Personal Weather Stations






























Interactive Weather Map New forecast layout! Learn more

10-Day Weather Forecast

Advertisements
Track Severe Weather on mobile